sensor_id;sensor_type;location;lat;lon;timestamp;P1;durP1;ratioP1;P2;durP2;ratioP2
5869;SDS011;2961;47.702;9.410;2023-08-06T00:00:31;5.33;;;4.93;;
5869;SDS011;2961;47.702;9.410;2023-08-06T00:02:58;6.87;;;5.50;;
5869;SDS011;2961;47.702;9.410;2023-08-06T00:05:24;6.03;;;5.43;;
5869;SDS011;2961;47.702;9.410;2023-08-06T00:07:51;5.93;;;5.43;;
5869;SDS011;2961;47.702;9.410;2023-08-06T00:10:18;4.73;;;4.43;;
5869;SDS011;2961;47.702;9.410;2023-08-06T00:12:45;5.60;;;5.10;;
5869;SDS011;2961;47.702;9.410;2023-08-06T00:15:12;4.87;;;4.47;;
5869;SDS011;2961;47.702;9.410;2023-08-06T00:17:40;4.67;;;4.27;;
5869;SDS011;2961;47.702;9.410;2023-08-06T00:20:07;4.80;;;4.40;;
5869;SDS011;2961;47.702;9.410;2023-08-06T00:22:35;5.40;;;4.80;;
5869;SDS011;2961;47.702;9.410;2023-08-06T00:25:03;5.67;;;5.13;;
5869;SDS011;2961;47.702;9.410;2023-08-06T00:27:31;5.10;;;4.67;;
5869;SDS011;2961;47.702;9.410;2023-08-06T00:29:58;8.60;;;4.70;;
5869;SDS011;2961;47.702;9.410;2023-08-06T00:32:25;6.20;;;5.37;;
5869;SDS011;2961;47.702;9.410;2023-08-06T00:34:53;5.87;;;5.20;;
5869;SDS011;2961;47.702;9.410;2023-08-06T00:37:20;5.67;;;5.10;;
5869;SDS011;2961;47.702;9.410;2023-08-06T00:39:46;5.67;;;5.17;;
5869;SDS011;2961;47.702;9.410;2023-08-06T00:42:13;5.10;;;4.60;;
5869;SDS011;2961;47.702;9.410;2023-08-06T00:44:41;4.37;;;3.97;;
5869;SDS011;2961;47.702;9.410;2023-08-06T00:47:08;4.23;;;3.93;;
5869;SDS011;2961;47.702;9.410;2023-08-06T00:49:35;4.70;;;4.30;;
5869;SDS011;2961;47.702;9.410;2023-08-06T00:52:05;5.13;;;4.63;;
5869;SDS011;2961;47.702;9.410;2023-08-06T00:54:33;4.27;;;3.97;;
5869;SDS011;2961;47.702;9.410;2023-08-06T00:57:02;4.10;;;3.80;;
5869;SDS011;2961;47.702;9.410;2023-08-06T00:59:30;5.10;;;4.70;;
5869;SDS011;2961;47.702;9.410;2023-08-06T01:01:58;7.40;;;4.83;;
5869;SDS011;2961;47.702;9.410;2023-08-06T01:04:24;4.77;;;4.37;;
5869;SDS011;2961;47.702;9.410;2023-08-06T01:06:52;4.50;;;4.10;;
5869;SDS011;2961;47.702;9.410;2023-08-06T01:09:30;4.13;;;3.90;;
5869;SDS011;2961;47.702;9.410;2023-08-06T01:12:05;4.60;;;4.30;;
5869;SDS011;2961;47.702;9.410;2023-08-06T01:14:37;4.37;;;3.97;;
5869;SDS011;2961;47.702;9.410;2023-08-06T01:17:12;4.40;;;4.10;;
5869;SDS011;2961;47.702;9.410;2023-08-06T01:19:40;4.43;;;3.93;;
5869;SDS011;2961;47.702;9.410;2023-08-06T01:22:08;4.53;;;4.17;;
5869;SDS011;2961;47.702;9.410;2023-08-06T01:24:34;9.30;;;4.10;;
5869;SDS011;2961;47.702;9.410;2023-08-06T01:27:03;4.63;;;3.80;;
5869;SDS011;2961;47.702;9.410;2023-08-06T01:29:38;4.83;;;4.40;;
5869;SDS011;2961;47.702;9.410;2023-08-06T01:32:08;3.97;;;3.67;;
5869;SDS011;2961;47.702;9.410;2023-08-06T01:34:37;4.43;;;4.13;;
5869;SDS011;2961;47.702;9.410;2023-08-06T01:37:07;6.90;;;3.60;;
5869;SDS011;2961;47.702;9.410;2023-08-06T01:39:35;4.70;;;4.30;;
5869;SDS011;2961;47.702;9.410;2023-08-06T01:42:02;4.50;;;4.10;;
5869;SDS011;2961;47.702;9.410;2023-08-06T01:44:29;4.63;;;4.20;;
5869;SDS011;2961;47.702;9.410;2023-08-06T01:46:56;3.90;;;3.70;;
5869;SDS011;2961;47.702;9.410;2023-08-06T01:49:23;4.20;;;3.60;;
5869;SDS011;2961;47.702;9.410;2023-08-06T01:51:50;4.40;;;3.77;;
5869;SDS011;2961;47.702;9.410;2023-08-06T01:54:18;4.27;;;3.97;;
5869;SDS011;2961;47.702;9.410;2023-08-06T01:56:45;6.63;;;4.40;;
5869;SDS011;2961;47.702;9.410;2023-08-06T01:59:12;6.50;;;3.33;;
5869;SDS011;2961;47.702;9.410;2023-08-06T02:01:38;3.40;;;3.30;;
5869;SDS011;2961;47.702;9.410;2023-08-06T02:04:05;4.00;;;3.70;;
5869;SDS011;2961;47.702;9.410;2023-08-06T02:06:32;3.67;;;3.50;;
5869;SDS011;2961;47.702;9.410;2023-08-06T02:08:59;3.90;;;3.70;;
5869;SDS011;2961;47.702;9.410;2023-08-06T02:11:27;7.60;;;3.20;;
5869;SDS011;2961;47.702;9.410;2023-08-06T02:13:53;3.97;;;3.47;;
5869;SDS011;2961;47.702;9.410;2023-08-06T02:16:20;3.90;;;3.50;;
5869;SDS011;2961;47.702;9.410;2023-08-06T02:18:47;5.40;;;3.67;;
5869;SDS011;2961;47.702;9.410;2023-08-06T02:21:14;4.73;;;3.77;;
5869;SDS011;2961;47.702;9.410;2023-08-06T02:23:41;3.83;;;3.63;;
5869;SDS011;2961;47.702;9.410;2023-08-06T02:26:07;3.90;;;3.60;;
5869;SDS011;2961;47.702;9.410;2023-08-06T02:28:36;4.23;;;3.93;;
5869;SDS011;2961;47.702;9.410;2023-08-06T02:31:02;4.10;;;3.70;;
5869;SDS011;2961;47.702;9.410;2023-08-06T02:33:29;5.23;;;4.27;;
5869;SDS011;2961;47.702;9.410;2023-08-06T02:35:59;6.80;;;3.30;;
5869;SDS011;2961;47.702;9.410;2023-08-06T02:38:27;4.20;;;3.83;;
5869;SDS011;2961;47.702;9.410;2023-08-06T02:40:53;6.70;;;4.90;;
5869;SDS011;2961;47.702;9.410;2023-08-06T02:43:20;4.80;;;4.33;;
5869;SDS011;2961;47.702;9.410;2023-08-06T02:45:48;4.97;;;4.47;;
5869;SDS011;2961;47.702;9.410;2023-08-06T02:48:15;4.50;;;4.10;;
5869;SDS011;2961;47.702;9.410;2023-08-06T02:50:43;4.10;;;3.90;;
5869;SDS011;2961;47.702;9.410;2023-08-06T02:53:10;4.07;;;3.80;;
5869;SDS011;2961;47.702;9.410;2023-08-06T02:55:44;4.00;;;3.70;;
5869;SDS011;2961;47.702;9.410;2023-08-06T02:58:12;3.87;;;3.60;;
5869;SDS011;2961;47.702;9.410;2023-08-06T03:00:39;3.93;;;3.70;;
5869;SDS011;2961;47.702;9.410;2023-08-06T03:03:08;4.10;;;3.40;;
5869;SDS011;2961;47.702;9.410;2023-08-06T03:05:35;3.90;;;3.60;;
5869;SDS011;2961;47.702;9.410;2023-08-06T03:08:02;4.00;;;3.70;;
5869;SDS011;2961;47.702;9.410;2023-08-06T03:10:29;4.70;;;4.30;;
5869;SDS011;2961;47.702;9.410;2023-08-06T03:12:55;3.70;;;3.40;;
5869;SDS011;2961;47.702;9.410;2023-08-06T03:15:22;3.30;;;3.10;;
5869;SDS011;2961;47.702;9.410;2023-08-06T03:17:49;3.33;;;3.13;;
5869;SDS011;2961;47.702;9.410;2023-08-06T03:20:17;4.13;;;3.83;;
5869;SDS011;2961;47.702;9.410;2023-08-06T03:22:44;3.70;;;3.40;;
5869;SDS011;2961;47.702;9.410;2023-08-06T03:25:11;5.83;;;3.57;;
5869;SDS011;2961;47.702;9.410;2023-08-06T03:27:38;4.77;;;4.33;;
5869;SDS011;2961;47.702;9.410;2023-08-06T03:30:05;4.27;;;3.70;;
5869;SDS011;2961;47.702;9.410;2023-08-06T03:32:33;4.53;;;4.10;;
5869;SDS011;2961;47.702;9.410;2023-08-06T03:34:59;4.03;;;3.77;;
5869;SDS011;2961;47.702;9.410;2023-08-06T03:37:28;5.40;;;3.90;;
5869;SDS011;2961;47.702;9.410;2023-08-06T03:39:55;4.17;;;3.90;;
5869;SDS011;2961;47.702;9.410;2023-08-06T03:42:21;3.27;;;2.97;;
5869;SDS011;2961;47.702;9.410;2023-08-06T03:44:48;3.63;;;3.43;;
5869;SDS011;2961;47.702;9.410;2023-08-06T03:47:15;3.83;;;3.53;;
5869;SDS011;2961;47.702;9.410;2023-08-06T03:49:42;7.90;;;3.63;;
5869;SDS011;2961;47.702;9.410;2023-08-06T03:52:09;5.70;;;3.90;;
5869;SDS011;2961;47.702;9.410;2023-08-06T03:54:37;3.80;;;3.60;;
5869;SDS011;2961;47.702;9.410;2023-08-06T03:57:04;3.63;;;3.33;;
5869;SDS011;2961;47.702;9.410;2023-08-06T03:59:31;3.97;;;3.67;;
5869;SDS011;2961;47.702;9.410;2023-08-06T04:01:58;4.43;;;4.10;;
5869;SDS011;2961;47.702;9.410;2023-08-06T04:04:25;6.17;;;3.67;;
5869;SDS011;2961;47.702;9.410;2023-08-06T04:06:51;5.33;;;3.50;;
5869;SDS011;2961;47.702;9.410;2023-08-06T04:09:18;6.97;;;3.90;;
5869;SDS011;2961;47.702;9.410;2023-08-06T04:11:46;6.20;;;3.60;;
5869;SDS011;2961;47.702;9.410;2023-08-06T04:14:13;6.37;;;3.97;;
5869;SDS011;2961;47.702;9.410;2023-08-06T04:16:40;3.50;;;3.20;;
5869;SDS011;2961;47.702;9.410;2023-08-06T04:19:07;3.63;;;3.33;;
5869;SDS011;2961;47.702;9.410;2023-08-06T04:21:33;3.10;;;2.90;;
5869;SDS011;2961;47.702;9.410;2023-08-06T04:24:00;2.33;;;2.23;;
5869;SDS011;2961;47.702;9.410;2023-08-06T04:26:27;2.70;;;2.50;;
5869;SDS011;2961;47.702;9.410;2023-08-06T04:28:55;2.47;;;2.37;;
5869;SDS011;2961;47.702;9.410;2023-08-06T04:31:22;2.67;;;2.57;;
5869;SDS011;2961;47.702;9.410;2023-08-06T04:33:49;2.20;;;2.10;;
5869;SDS011;2961;47.702;9.410;2023-08-06T04:36:16;2.70;;;2.50;;
5869;SDS011;2961;47.702;9.410;2023-08-06T04:38:43;4.93;;;3.70;;
5869;SDS011;2961;47.702;9.410;2023-08-06T04:41:12;3.13;;;2.37;;
5869;SDS011;2961;47.702;9.410;2023-08-06T04:43:39;2.60;;;2.40;;
5869;SDS011;2961;47.702;9.410;2023-08-06T04:46:07;2.17;;;2.07;;
5869;SDS011;2961;47.702;9.410;2023-08-06T04:48:33;6.67;;;2.47;;
5869;SDS011;2961;47.702;9.410;2023-08-06T04:51:00;2.37;;;2.27;;
5869;SDS011;2961;47.702;9.410;2023-08-06T04:53:27;2.07;;;1.97;;
5869;SDS011;2961;47.702;9.410;2023-08-06T04:55:54;2.43;;;2.27;;
5869;SDS011;2961;47.702;9.410;2023-08-06T04:58:20;2.40;;;2.00;;
5869;SDS011;2961;47.702;9.410;2023-08-06T05:00:47;2.20;;;2.10;;
5869;SDS011;2961;47.702;9.410;2023-08-06T05:03:15;2.00;;;1.90;;
5869;SDS011;2961;47.702;9.410;2023-08-06T05:05:42;2.57;;;2.40;;
5869;SDS011;2961;47.702;9.410;2023-08-06T05:08:13;3.27;;;2.97;;
5869;SDS011;2961;47.702;9.410;2023-08-06T05:10:42;4.13;;;2.37;;
5869;SDS011;2961;47.702;9.410;2023-08-06T05:13:09;3.97;;;2.43;;
5869;SDS011;2961;47.702;9.410;2023-08-06T05:15:36;1.83;;;1.73;;
5869;SDS011;2961;47.702;9.410;2023-08-06T05:18:04;1.83;;;1.73;;
5869;SDS011;2961;47.702;9.410;2023-08-06T05:20:33;1.63;;;1.50;;
5869;SDS011;2961;47.702;9.410;2023-08-06T05:23:02;1.97;;;1.47;;
5869;SDS011;2961;47.702;9.410;2023-08-06T05:25:29;1.40;;;1.40;;
5869;SDS011;2961;47.702;9.410;2023-08-06T05:27:56;3.70;;;1.67;;
5869;SDS011;2961;47.702;9.410;2023-08-06T05:30:23;2.03;;;1.37;;
5869;SDS011;2961;47.702;9.410;2023-08-06T05:32:50;1.43;;;1.33;;
5869;SDS011;2961;47.702;9.410;2023-08-06T05:35:16;2.53;;;1.07;;
5869;SDS011;2961;47.702;9.410;2023-08-06T05:37:45;0.87;;;0.87;;
5869;SDS011;2961;47.702;9.410;2023-08-06T05:40:12;1.30;;;0.90;;
5869;SDS011;2961;47.702;9.410;2023-08-06T05:42:39;2.47;;;1.50;;
5869;SDS011;2961;47.702;9.410;2023-08-06T05:45:07;0.70;;;0.67;;
5869;SDS011;2961;47.702;9.410;2023-08-06T05:47:34;2.50;;;1.00;;
5869;SDS011;2961;47.702;9.410;2023-08-06T05:50:01;1.13;;;0.70;;
5869;SDS011;2961;47.702;9.410;2023-08-06T05:52:28;2.50;;;0.50;;
5869;SDS011;2961;47.702;9.410;2023-08-06T05:54:56;0.50;;;0.47;;
5869;SDS011;2961;47.702;9.410;2023-08-06T05:57:23;1.07;;;0.83;;
5869;SDS011;2961;47.702;9.410;2023-08-06T05:59:50;1.50;;;0.60;;
5869;SDS011;2961;47.702;9.410;2023-08-06T06:02:16;4.70;;;0.97;;
5869;SDS011;2961;47.702;9.410;2023-08-06T06:04:44;1.47;;;0.50;;
5869;SDS011;2961;47.702;9.410;2023-08-06T06:07:10;3.20;;;0.63;;
5869;SDS011;2961;47.702;9.410;2023-08-06T06:09:37;0.80;;;0.80;;
5869;SDS011;2961;47.702;9.410;2023-08-06T06:12:06;1.47;;;0.73;;
5869;SDS011;2961;47.702;9.410;2023-08-06T06:14:33;1.70;;;0.50;;
5869;SDS011;2961;47.702;9.410;2023-08-06T06:16:59;0.70;;;0.53;;
5869;SDS011;2961;47.702;9.410;2023-08-06T06:19:26;1.03;;;0.60;;
5869;SDS011;2961;47.702;9.410;2023-08-06T06:21:53;0.40;;;0.30;;
5869;SDS011;2961;47.702;9.410;2023-08-06T06:24:22;0.40;;;0.30;;
5869;SDS011;2961;47.702;9.410;2023-08-06T06:26:49;3.47;;;0.50;;
5869;SDS011;2961;47.702;9.410;2023-08-06T06:29:17;0.50;;;0.40;;
5869;SDS011;2961;47.702;9.410;2023-08-06T06:31:44;1.47;;;0.40;;
5869;SDS011;2961;47.702;9.410;2023-08-06T06:34:11;0.50;;;0.50;;
5869;SDS011;2961;47.702;9.410;2023-08-06T06:36:38;1.90;;;0.30;;
5869;SDS011;2961;47.702;9.410;2023-08-06T06:39:04;0.50;;;0.30;;
5869;SDS011;2961;47.702;9.410;2023-08-06T06:41:31;1.33;;;0.43;;
5869;SDS011;2961;47.702;9.410;2023-08-06T06:43:58;0.40;;;0.40;;
5869;SDS011;2961;47.702;9.410;2023-08-06T06:46:26;1.57;;;0.50;;
5869;SDS011;2961;47.702;9.410;2023-08-06T06:48:53;2.00;;;0.60;;
5869;SDS011;2961;47.702;9.410;2023-08-06T06:51:20;1.23;;;0.33;;
5869;SDS011;2961;47.702;9.410;2023-08-06T06:53:46;1.90;;;0.57;;
5869;SDS011;2961;47.702;9.410;2023-08-06T06:56:13;1.40;;;0.60;;
5869;SDS011;2961;47.702;9.410;2023-08-06T06:58:40;0.40;;;0.40;;
5869;SDS011;2961;47.702;9.410;2023-08-06T07:01:07;2.37;;;0.60;;
5869;SDS011;2961;47.702;9.410;2023-08-06T07:03:37;1.03;;;0.40;;
5869;SDS011;2961;47.702;9.410;2023-08-06T07:06:04;1.60;;;0.50;;
5869;SDS011;2961;47.702;9.410;2023-08-06T07:08:31;2.33;;;0.67;;
5869;SDS011;2961;47.702;9.410;2023-08-06T07:11:01;1.90;;;0.63;;
5869;SDS011;2961;47.702;9.410;2023-08-06T07:13:29;1.60;;;0.40;;
5869;SDS011;2961;47.702;9.410;2023-08-06T07:15:56;1.17;;;0.50;;
5869;SDS011;2961;47.702;9.410;2023-08-06T07:18:23;1.43;;;0.60;;
5869;SDS011;2961;47.702;9.410;2023-08-06T07:20:52;1.50;;;0.50;;
5869;SDS011;2961;47.702;9.410;2023-08-06T07:23:20;0.50;;;0.30;;
5869;SDS011;2961;47.702;9.410;2023-08-06T07:25:48;10.63;;;7.13;;
5869;SDS011;2961;47.702;9.410;2023-08-06T07:28:15;2.80;;;1.50;;
5869;SDS011;2961;47.702;9.410;2023-08-06T07:30:43;1.70;;;0.50;;
5869;SDS011;2961;47.702;9.410;2023-08-06T07:33:10;0.50;;;0.50;;
5869;SDS011;2961;47.702;9.410;2023-08-06T07:35:37;1.27;;;0.53;;
5869;SDS011;2961;47.702;9.410;2023-08-06T07:38:05;0.80;;;0.43;;
5869;SDS011;2961;47.702;9.410;2023-08-06T07:40:32;1.10;;;0.47;;
5869;SDS011;2961;47.702;9.410;2023-08-06T07:43:01;0.93;;;0.50;;
5869;SDS011;2961;47.702;9.410;2023-08-06T07:45:28;0.47;;;0.47;;
5869;SDS011;2961;47.702;9.410;2023-08-06T07:47:59;2.10;;;0.47;;
5869;SDS011;2961;47.702;9.410;2023-08-06T07:50:25;1.60;;;0.43;;
5869;SDS011;2961;47.702;9.410;2023-08-06T07:52:52;4.63;;;0.53;;
5869;SDS011;2961;47.702;9.410;2023-08-06T07:55:20;0.77;;;0.60;;
5869;SDS011;2961;47.702;9.410;2023-08-06T07:57:47;1.60;;;0.30;;
5869;SDS011;2961;47.702;9.410;2023-08-06T08:00:14;0.83;;;0.50;;
5869;SDS011;2961;47.702;9.410;2023-08-06T08:02:41;1.70;;;0.40;;
5869;SDS011;2961;47.702;9.410;2023-08-06T08:05:08;0.40;;;0.40;;
5869;SDS011;2961;47.702;9.410;2023-08-06T08:07:34;0.40;;;0.40;;
5869;SDS011;2961;47.702;9.410;2023-08-06T08:10:01;0.60;;;0.60;;
5869;SDS011;2961;47.702;9.410;2023-08-06T08:12:31;0.97;;;0.30;;
5869;SDS011;2961;47.702;9.410;2023-08-06T08:14:58;2.30;;;0.40;;
5869;SDS011;2961;47.702;9.410;2023-08-06T08:17:25;1.33;;;0.30;;
5869;SDS011;2961;47.702;9.410;2023-08-06T08:19:51;0.40;;;0.40;;
5869;SDS011;2961;47.702;9.410;2023-08-06T08:22:18;0.70;;;0.37;;
5869;SDS011;2961;47.702;9.410;2023-08-06T08:24:45;0.40;;;0.30;;
5869;SDS011;2961;47.702;9.410;2023-08-06T08:27:12;2.20;;;0.60;;
5869;SDS011;2961;47.702;9.410;2023-08-06T08:29:40;0.90;;;0.50;;
5869;SDS011;2961;47.702;9.410;2023-08-06T08:32:07;1.33;;;0.40;;
5869;SDS011;2961;47.702;9.410;2023-08-06T08:34:34;0.30;;;0.30;;
5869;SDS011;2961;47.702;9.410;2023-08-06T08:37:00;0.40;;;0.40;;
5869;SDS011;2961;47.702;9.410;2023-08-06T08:39:31;0.90;;;0.33;;
5869;SDS011;2961;47.702;9.410;2023-08-06T08:41:58;0.70;;;0.50;;
5869;SDS011;2961;47.702;9.410;2023-08-06T08:44:24;0.70;;;0.40;;
5869;SDS011;2961;47.702;9.410;2023-08-06T08:46:55;1.80;;;0.53;;
5869;SDS011;2961;47.702;9.410;2023-08-06T08:49:23;0.60;;;0.50;;
5869;SDS011;2961;47.702;9.410;2023-08-06T08:51:53;1.60;;;0.57;;
5869;SDS011;2961;47.702;9.410;2023-08-06T08:54:20;0.30;;;0.30;;
5869;SDS011;2961;47.702;9.410;2023-08-06T08:56:49;0.50;;;0.33;;
5869;SDS011;2961;47.702;9.410;2023-08-06T08:59:15;4.67;;;0.40;;
5869;SDS011;2961;47.702;9.410;2023-08-06T09:01:43;2.40;;;0.70;;
5869;SDS011;2961;47.702;9.410;2023-08-06T09:04:17;3.00;;;0.50;;
5869;SDS011;2961;47.702;9.410;2023-08-06T09:06:46;4.53;;;0.60;;
5869;SDS011;2961;47.702;9.410;2023-08-06T09:09:17;0.80;;;0.40;;
5869;SDS011;2961;47.702;9.410;2023-08-06T09:11:48;1.67;;;0.30;;
5869;SDS011;2961;47.702;9.410;2023-08-06T09:14:15;0.60;;;0.60;;
5869;SDS011;2961;47.702;9.410;2023-08-06T09:16:43;1.50;;;0.50;;
5869;SDS011;2961;47.702;9.410;2023-08-06T09:19:10;1.00;;;0.97;;
5869;SDS011;2961;47.702;9.410;2023-08-06T09:21:39;2.10;;;0.33;;
5869;SDS011;2961;47.702;9.410;2023-08-06T09:24:09;0.30;;;0.30;;
5869;SDS011;2961;47.702;9.410;2023-08-06T09:26:36;0.40;;;0.40;;
5869;SDS011;2961;47.702;9.410;2023-08-06T09:29:04;0.30;;;0.30;;
5869;SDS011;2961;47.702;9.410;2023-08-06T09:31:32;0.67;;;0.30;;
5869;SDS011;2961;47.702;9.410;2023-08-06T09:34:00;1.43;;;0.30;;
5869;SDS011;2961;47.702;9.410;2023-08-06T09:36:27;0.60;;;0.40;;
5869;SDS011;2961;47.702;9.410;2023-08-06T09:38:55;1.83;;;0.87;;
5869;SDS011;2961;47.702;9.410;2023-08-06T09:41:26;1.00;;;0.60;;
5869;SDS011;2961;47.702;9.410;2023-08-06T09:43:53;1.07;;;0.50;;
5869;SDS011;2961;47.702;9.410;2023-08-06T09:46:20;0.30;;;0.30;;
5869;SDS011;2961;47.702;9.410;2023-08-06T09:48:47;2.50;;;0.20;;
5869;SDS011;2961;47.702;9.410;2023-08-06T09:51:15;1.37;;;0.30;;
5869;SDS011;2961;47.702;9.410;2023-08-06T09:53:42;0.30;;;0.30;;
5869;SDS011;2961;47.702;9.410;2023-08-06T09:56:11;0.97;;;0.97;;
5869;SDS011;2961;47.702;9.410;2023-08-06T09:58:40;0.67;;;0.30;;
5869;SDS011;2961;47.702;9.410;2023-08-06T10:01:07;1.47;;;0.40;;
5869;SDS011;2961;47.702;9.410;2023-08-06T10:03:34;0.80;;;0.40;;
5869;SDS011;2961;47.702;9.410;2023-08-06T10:06:02;0.30;;;0.27;;
5869;SDS011;2961;47.702;9.410;2023-08-06T10:08:32;1.90;;;0.50;;
5869;SDS011;2961;47.702;9.410;2023-08-06T10:10:58;0.90;;;0.90;;
5869;SDS011;2961;47.702;9.410;2023-08-06T10:13:28;2.70;;;2.50;;
5869;SDS011;2961;47.702;9.410;2023-08-06T10:15:56;0.93;;;0.50;;
5869;SDS011;2961;47.702;9.410;2023-08-06T10:18:23;0.20;;;0.20;;
5869;SDS011;2961;47.702;9.410;2023-08-06T10:20:50;0.30;;;0.30;;
5869;SDS011;2961;47.702;9.410;2023-08-06T10:23:18;1.93;;;0.60;;
5869;SDS011;2961;47.702;9.410;2023-08-06T10:25:46;0.50;;;0.30;;
5869;SDS011;2961;47.702;9.410;2023-08-06T10:28:20;0.30;;;0.30;;
5869;SDS011;2961;47.702;9.410;2023-08-06T10:30:48;1.30;;;0.23;;
5869;SDS011;2961;47.702;9.410;2023-08-06T10:33:18;0.60;;;0.30;;
5869;SDS011;2961;47.702;9.410;2023-08-06T10:35:46;0.30;;;0.30;;
5869;SDS011;2961;47.702;9.410;2023-08-06T10:38:14;0.30;;;0.30;;
5869;SDS011;2961;47.702;9.410;2023-08-06T10:40:43;0.30;;;0.20;;
5869;SDS011;2961;47.702;9.410;2023-08-06T10:43:24;1.03;;;0.37;;
5869;SDS011;2961;47.702;9.410;2023-08-06T10:45:54;0.30;;;0.20;;
5869;SDS011;2961;47.702;9.410;2023-08-06T10:48:30;0.30;;;0.20;;
5869;SDS011;2961;47.702;9.410;2023-08-06T10:50:59;0.73;;;0.30;;
5869;SDS011;2961;47.702;9.410;2023-08-06T10:53:27;0.30;;;0.20;;
5869;SDS011;2961;47.702;9.410;2023-08-06T10:55:54;0.20;;;0.20;;
5869;SDS011;2961;47.702;9.410;2023-08-06T10:58:20;1.03;;;0.30;;
5869;SDS011;2961;47.702;9.410;2023-08-06T11:00:47;0.30;;;0.30;;
5869;SDS011;2961;47.702;9.410;2023-08-06T11:03:15;0.30;;;0.30;;
5869;SDS011;2961;47.702;9.410;2023-08-06T11:05:48;0.23;;;0.20;;
5869;SDS011;2961;47.702;9.410;2023-08-06T11:08:22;0.30;;;0.20;;
5869;SDS011;2961;47.702;9.410;2023-08-06T11:10:49;0.30;;;0.20;;
5869;SDS011;2961;47.702;9.410;2023-08-06T11:13:16;1.13;;;0.30;;
5869;SDS011;2961;47.702;9.410;2023-08-06T11:15:43;0.30;;;0.20;;
5869;SDS011;2961;47.702;9.410;2023-08-06T11:18:10;1.23;;;0.20;;
5869;SDS011;2961;47.702;9.410;2023-08-06T11:20:39;0.20;;;0.20;;
5869;SDS011;2961;47.702;9.410;2023-08-06T11:23:06;0.30;;;0.30;;
5869;SDS011;2961;47.702;9.410;2023-08-06T11:25:36;0.30;;;0.20;;
5869;SDS011;2961;47.702;9.410;2023-08-06T11:28:03;0.40;;;0.20;;
5869;SDS011;2961;47.702;9.410;2023-08-06T11:30:30;0.40;;;0.40;;
5869;SDS011;2961;47.702;9.410;2023-08-06T11:32:57;0.30;;;0.30;;
5869;SDS011;2961;47.702;9.410;2023-08-06T11:35:23;0.53;;;0.20;;
5869;SDS011;2961;47.702;9.410;2023-08-06T11:37:52;0.20;;;0.20;;
5869;SDS011;2961;47.702;9.410;2023-08-06T11:40:19;0.30;;;0.20;;
5869;SDS011;2961;47.702;9.410;2023-08-06T11:42:46;0.20;;;0.20;;
5869;SDS011;2961;47.702;9.410;2023-08-06T11:45:14;0.20;;;0.20;;
5869;SDS011;2961;47.702;9.410;2023-08-06T11:47:40;0.30;;;0.20;;
5869;SDS011;2961;47.702;9.410;2023-08-06T11:50:07;0.30;;;0.20;;
5869;SDS011;2961;47.702;9.410;2023-08-06T11:52:35;0.30;;;0.20;;
5869;SDS011;2961;47.702;9.410;2023-08-06T11:55:09;2.83;;;0.30;;
5869;SDS011;2961;47.702;9.410;2023-08-06T11:57:36;0.40;;;0.40;;
5869;SDS011;2961;47.702;9.410;2023-08-06T12:00:05;0.53;;;0.30;;
5869;SDS011;2961;47.702;9.410;2023-08-06T12:02:33;0.97;;;0.30;;
5869;SDS011;2961;47.702;9.410;2023-08-06T12:05:03;0.40;;;0.20;;
5869;SDS011;2961;47.702;9.410;2023-08-06T12:07:31;0.53;;;0.20;;
5869;SDS011;2961;47.702;9.410;2023-08-06T12:10:02;0.30;;;0.27;;
5869;SDS011;2961;47.702;9.410;2023-08-06T12:12:31;0.20;;;0.20;;
5869;SDS011;2961;47.702;9.410;2023-08-06T12:14:58;1.00;;;1.00;;
5869;SDS011;2961;47.702;9.410;2023-08-06T12:17:24;1.37;;;0.30;;
5869;SDS011;2961;47.702;9.410;2023-08-06T12:19:52;1.03;;;0.20;;
5869;SDS011;2961;47.702;9.410;2023-08-06T12:22:18;0.30;;;0.20;;
5869;SDS011;2961;47.702;9.410;2023-08-06T12:24:46;0.30;;;0.20;;
5869;SDS011;2961;47.702;9.410;2023-08-06T12:27:13;0.30;;;0.30;;
5869;SDS011;2961;47.702;9.410;2023-08-06T12:29:41;0.70;;;0.33;;
5869;SDS011;2961;47.702;9.410;2023-08-06T12:32:09;1.80;;;0.30;;
5869;SDS011;2961;47.702;9.410;2023-08-06T12:34:37;1.03;;;0.40;;
5869;SDS011;2961;47.702;9.410;2023-08-06T12:37:04;0.27;;;0.20;;
5869;SDS011;2961;47.702;9.410;2023-08-06T12:39:31;0.30;;;0.20;;
5869;SDS011;2961;47.702;9.410;2023-08-06T12:41:58;0.30;;;0.30;;
5869;SDS011;2961;47.702;9.410;2023-08-06T12:44:26;0.30;;;0.30;;
5869;SDS011;2961;47.702;9.410;2023-08-06T12:46:54;0.20;;;0.20;;
5869;SDS011;2961;47.702;9.410;2023-08-06T12:49:21;0.30;;;0.30;;
5869;SDS011;2961;47.702;9.410;2023-08-06T12:51:49;0.50;;;0.20;;
5869;SDS011;2961;47.702;9.410;2023-08-06T12:54:17;1.50;;;0.53;;
5869;SDS011;2961;47.702;9.410;2023-08-06T12:56:44;0.30;;;0.27;;
5869;SDS011;2961;47.702;9.410;2023-08-06T12:59:11;0.30;;;0.20;;
5869;SDS011;2961;47.702;9.410;2023-08-06T13:01:40;0.40;;;0.30;;
5869;SDS011;2961;47.702;9.410;2023-08-06T13:04:08;0.30;;;0.23;;
5869;SDS011;2961;47.702;9.410;2023-08-06T13:06:35;0.30;;;0.30;;
5869;SDS011;2961;47.702;9.410;2023-08-06T13:09:04;0.30;;;0.20;;
5869;SDS011;2961;47.702;9.410;2023-08-06T13:11:32;1.10;;;0.40;;
5869;SDS011;2961;47.702;9.410;2023-08-06T13:14:03;0.30;;;0.20;;
5869;SDS011;2961;47.702;9.410;2023-08-06T13:16:31;0.30;;;0.30;;
5869;SDS011;2961;47.702;9.410;2023-08-06T13:18:57;0.40;;;0.30;;
5869;SDS011;2961;47.702;9.410;2023-08-06T13:21:31;0.87;;;0.33;;
5869;SDS011;2961;47.702;9.410;2023-08-06T13:23:59;0.30;;;0.30;;
5869;SDS011;2961;47.702;9.410;2023-08-06T13:26:26;0.30;;;0.30;;
5869;SDS011;2961;47.702;9.410;2023-08-06T13:28:53;0.87;;;0.30;;
5869;SDS011;2961;47.702;9.410;2023-08-06T13:31:20;0.30;;;0.30;;
5869;SDS011;2961;47.702;9.410;2023-08-06T13:33:47;0.30;;;0.20;;
5869;SDS011;2961;47.702;9.410;2023-08-06T13:36:15;0.40;;;0.40;;
5869;SDS011;2961;47.702;9.410;2023-08-06T13:38:43;0.30;;;0.30;;
5869;SDS011;2961;47.702;9.410;2023-08-06T13:41:10;0.60;;;0.40;;
5869;SDS011;2961;47.702;9.410;2023-08-06T13:43:36;0.30;;;0.30;;
5869;SDS011;2961;47.702;9.410;2023-08-06T13:46:03;0.33;;;0.33;;
5869;SDS011;2961;47.702;9.410;2023-08-06T13:48:30;0.30;;;0.30;;
5869;SDS011;2961;47.702;9.410;2023-08-06T13:50:57;0.43;;;0.43;;
5869;SDS011;2961;47.702;9.410;2023-08-06T13:53:24;0.30;;;0.30;;
5869;SDS011;2961;47.702;9.410;2023-08-06T13:55:56;0.90;;;0.30;;
5869;SDS011;2961;47.702;9.410;2023-08-06T13:58:23;0.43;;;0.43;;
5869;SDS011;2961;47.702;9.410;2023-08-06T14:00:50;0.60;;;0.60;;
5869;SDS011;2961;47.702;9.410;2023-08-06T14:03:18;0.30;;;0.30;;
5869;SDS011;2961;47.702;9.410;2023-08-06T14:05:45;0.50;;;0.50;;
5869;SDS011;2961;47.702;9.410;2023-08-06T14:08:11;0.67;;;0.67;;
5869;SDS011;2961;47.702;9.410;2023-08-06T14:10:38;0.60;;;0.60;;
5869;SDS011;2961;47.702;9.410;2023-08-06T14:13:07;0.30;;;0.30;;
5869;SDS011;2961;47.702;9.410;2023-08-06T14:15:33;0.30;;;0.30;;
5869;SDS011;2961;47.702;9.410;2023-08-06T14:18:00;0.37;;;0.37;;
5869;SDS011;2961;47.702;9.410;2023-08-06T14:20:27;0.40;;;0.40;;
5869;SDS011;2961;47.702;9.410;2023-08-06T14:22:54;0.43;;;0.43;;
5869;SDS011;2961;47.702;9.410;2023-08-06T14:25:21;0.40;;;0.40;;
5869;SDS011;2961;47.702;9.410;2023-08-06T14:27:48;1.67;;;0.50;;
5869;SDS011;2961;47.702;9.410;2023-08-06T14:30:16;0.60;;;0.50;;
5869;SDS011;2961;47.702;9.410;2023-08-06T14:32:43;0.40;;;0.40;;
5869;SDS011;2961;47.702;9.410;2023-08-06T14:35:10;1.83;;;0.40;;
5869;SDS011;2961;47.702;9.410;2023-08-06T14:37:37;0.70;;;0.53;;
5869;SDS011;2961;47.702;9.410;2023-08-06T14:40:04;1.03;;;0.50;;
5869;SDS011;2961;47.702;9.410;2023-08-06T14:42:32;2.50;;;0.50;;
5869;SDS011;2961;47.702;9.410;2023-08-06T14:44:59;0.50;;;0.50;;
5869;SDS011;2961;47.702;9.410;2023-08-06T14:47:27;2.70;;;0.50;;
5869;SDS011;2961;47.702;9.410;2023-08-06T14:49:54;0.70;;;0.40;;
5869;SDS011;2961;47.702;9.410;2023-08-06T14:52:21;0.37;;;0.37;;
5869;SDS011;2961;47.702;9.410;2023-08-06T14:54:48;0.50;;;0.50;;
5869;SDS011;2961;47.702;9.410;2023-08-06T14:57:17;0.40;;;0.33;;
5869;SDS011;2961;47.702;9.410;2023-08-06T14:59:43;0.73;;;0.73;;
5869;SDS011;2961;47.702;9.410;2023-08-06T15:02:10;0.70;;;0.70;;
5869;SDS011;2961;47.702;9.410;2023-08-06T15:04:38;1.27;;;0.57;;
5869;SDS011;2961;47.702;9.410;2023-08-06T15:07:05;0.40;;;0.40;;
5869;SDS011;2961;47.702;9.410;2023-08-06T15:09:34;0.47;;;0.47;;
5869;SDS011;2961;47.702;9.410;2023-08-06T15:12:01;0.40;;;0.40;;
5869;SDS011;2961;47.702;9.410;2023-08-06T15:14:28;0.80;;;0.80;;
5869;SDS011;2961;47.702;9.410;2023-08-06T15:16:55;0.50;;;0.50;;